Time;durP1;ratioP1;P1;durP2;ratioP2;P2;SDS_P1;SDS_P2;PMS_P1;PMS_P2;Temp;Humidity;BMP_temperature;BMP_pressure;BME280_temperature;BME280_humidity;BME280_pressure;Samples;Min_cycle;Max_cycle;Signal;HPM_P1;HPM_P2
2023/01/05 00:00:12;;;;;;;;;;;12.80;99.90;;;;;;7339144;19;110361;-89
2023/01/05 00:02:39;;;;;;;;;;;12.80;99.90;;;;;;7339230;19;110435;-89
2023/01/05 00:05:06;;;;;;;;;;;12.70;99.90;;;;;;7341243;19;109396;-90
2023/01/05 00:07:33;;;;;;;;;;;12.70;99.90;;;;;;7346552;19;112877;-89
2023/01/05 00:09:59;;;;;;;;;;;12.70;99.90;;;;;;7342429;19;108793;-89
2023/01/05 00:23:30;;;;;;;;;;;12.70;99.90;;;;;;7340529;19;108730;-89
2023/01/05 00:25:56;;;;;;;;;;;12.70;99.90;;;;;;7341539;19;111900;-90
2023/01/05 00:28:24;;;;;;;;;;;12.70;99.90;;;;;;7339169;19;109074;-90
2023/01/05 00:30:50;;;;;;;;;;;12.70;99.90;;;;;;7344657;19;108816;-89
2023/01/05 00:33:17;;;;;;;;;;;12.70;99.90;;;;;;7339554;19;109998;-90
2023/01/05 00:35:44;;;;;;;;;;;12.70;99.90;;;;;;7347713;19;109028;-89
2023/01/05 00:38:11;;;;;;;;;;;12.70;99.90;;;;;;7347276;19;112477;-90
2023/01/05 00:40:38;;;;;;;;;;;12.70;99.90;;;;;;7347607;19;110462;-89
2023/01/05 00:43:05;;;;;;;;;;;12.70;99.90;;;;;;7346825;19;108495;-88
2023/01/05 00:45:32;;;;;;;;;;;12.70;99.90;;;;;;7347233;19;112570;-89
2023/01/05 00:47:59;;;;;;;;;;;12.60;99.90;;;;;;7348653;19;113421;-90
2023/01/05 00:50:26;;;;;;;;;;;12.60;99.90;;;;;;7347690;19;108913;-91
2023/01/05 00:52:53;;;;;;;;;;;12.60;99.90;;;;;;7351672;19;111944;-89
2023/01/05 00:55:20;;;;;;;;;;;12.60;99.90;;;;;;7348594;19;108665;-90
2023/01/05 00:57:47;;;;;;;;;;;12.60;99.90;;;;;;7347212;19;112483;-89
2023/01/05 01:00:16;;;;;;;;;;;12.60;99.90;;;;;;7345308;19;113530;-90
2023/01/05 01:02:43;;;;;;;;;;;12.60;99.90;;;;;;7348667;19;108781;-89
2023/01/05 01:05:10;;;;;;;;;;;12.60;99.90;;;;;;7345264;19;109288;-89
2023/01/05 01:07:37;;;;;;;;;;;12.60;99.90;;;;;;7346625;19;110656;-89
2023/01/05 01:10:04;;;;;;;;;;;12.60;99.90;;;;;;7346215;19;108422;-88
2023/01/05 01:12:32;;;;;;;;;;;12.60;99.90;;;;;;7353112;19;108330;-89
2023/01/05 01:14:59;;;;;;;;;;;12.60;99.90;;;;;;7347390;19;108671;-89
2023/01/05 01:17:25;;;;;;;;;;;12.60;99.90;;;;;;7343718;19;109236;-89
2023/01/05 01:19:52;;;;;;;;;;;12.60;99.90;;;;;;7347507;19;110330;-90
2023/01/05 01:22:19;;;;;;;;;;;12.60;99.90;;;;;;7345594;19;109041;-89
2023/01/05 01:24:46;;;;;;;;;;;12.60;99.90;;;;;;7345256;19;111701;-90
2023/01/05 01:27:13;;;;;;;;;;;12.70;99.90;;;;;;7345377;19;110210;-88
2023/01/05 01:29:40;;;;;;;;;;;12.60;99.90;;;;;;7345774;19;108699;-88
2023/01/05 01:32:07;;;;;;;;;;;12.60;99.90;;;;;;7345791;19;111918;-89
2023/01/05 01:34:34;;;;;;;;;;;12.60;99.90;;;;;;7348869;19;110589;-90
2023/01/05 01:37:01;;;;;;;;;;;12.60;99.90;;;;;;7344961;19;109486;-88
2023/01/05 01:39:31;;;;;;;;;;;12.60;99.90;;;;;;7344096;19;113297;-90
2023/01/05 01:41:58;;;;;;;;;;;12.60;99.90;;;;;;7345093;19;108872;-89
2023/01/05 01:44:44;;;;;;;;;;;12.60;99.90;;;;;;7345790;19;109368;-89
2023/01/05 01:47:14;;;;;;;;;;;12.60;99.90;;;;;;7343101;19;109881;-89
2023/01/05 01:49:41;;;;;;;;;;;12.60;99.90;;;;;;7343705;19;109246;-88
2023/01/05 01:52:08;;;;;;;;;;;12.60;99.90;;;;;;7343590;19;109482;-87
2023/01/05 01:54:35;;;;;;;;;;;12.60;99.90;;;;;;7344358;19;112989;-89
2023/01/05 01:57:02;;;;;;;;;;;12.50;99.90;;;;;;7348965;19;108476;-88
2023/01/05 01:59:29;;;;;;;;;;;12.60;99.90;;;;;;7344703;19;109326;-89
2023/01/05 02:01:58;;;;;;;;;;;12.60;99.90;;;;;;7346997;19;108748;-89
2023/01/05 02:04:26;;;;;;;;;;;12.50;99.90;;;;;;7344202;19;108852;-89
2023/01/05 02:06:53;;;;;;;;;;;12.60;99.90;;;;;;7345669;19;110350;-88
2023/01/05 02:09:20;;;;;;;;;;;12.60;99.90;;;;;;7342989;19;108345;-89
2023/01/05 02:12:05;;;;;;;;;;;12.60;99.90;;;;;;7344523;19;110654;-88
2023/01/05 02:14:47;;;;;;;;;;;12.60;99.90;;;;;;7347309;19;113188;-91
2023/01/05 02:17:37;;;;;;;;;;;12.60;99.90;;;;;;7345279;19;108646;-90
2023/01/05 02:20:04;;;;;;;;;;;12.60;99.90;;;;;;7349554;19;113011;-90
2023/01/05 02:22:57;;;;;;;;;;;12.60;99.90;;;;;;7343589;19;108773;-90
2023/01/05 02:25:33;;;;;;;;;;;12.60;99.90;;;;;;7345831;19;108647;-90
2023/01/05 02:28:15;;;;;;;;;;;12.60;99.90;;;;;;7343712;19;112671;-90
2023/01/05 02:30:52;;;;;;;;;;;12.60;99.90;;;;;;7343130;19;109463;-89
2023/01/05 02:33:37;;;;;;;;;;;12.60;99.90;;;;;;7344374;19;109264;-90
2023/01/05 02:36:13;;;;;;;;;;;12.60;99.90;;;;;;7343566;19;110378;-90
2023/01/05 02:38:48;;;;;;;;;;;12.60;99.90;;;;;;7345274;19;108761;-89
2023/01/05 02:41:23;;;;;;;;;;;12.60;99.90;;;;;;7344214;19;109040;-90
2023/01/05 02:43:50;;;;;;;;;;;12.60;99.90;;;;;;7351321;19;110412;-89
2023/01/05 02:46:17;;;;;;;;;;;12.60;99.90;;;;;;7343128;19;109350;-90
2023/01/05 02:48:48;;;;;;;;;;;12.60;99.90;;;;;;7342197;19;111124;-89
2023/01/05 02:51:17;;;;;;;;;;;12.60;99.90;;;;;;7342174;19;108755;-89
2023/01/05 02:53:48;;;;;;;;;;;12.60;99.90;;;;;;7345090;19;109978;-90
2023/01/05 02:56:17;;;;;;;;;;;12.60;99.90;;;;;;7342361;19;109497;-90
2023/01/05 02:58:48;;;;;;;;;;;12.60;99.90;;;;;;7341740;19;108667;-89
2023/01/05 03:01:33;;;;;;;;;;;12.60;99.90;;;;;;7341930;19;108748;-89
2023/01/05 03:04:04;;;;;;;;;;;12.60;99.90;;;;;;7342722;19;110347;-90
2023/01/05 03:06:45;;;;;;;;;;;12.60;99.90;;;;;;7348039;19;109455;-89
2023/01/05 03:09:14;;;;;;;;;;;12.60;99.90;;;;;;7342092;19;110088;-89
2023/01/05 03:14:57;;;;;;;;;;;12.60;99.90;;;;;;7343364;19;108364;-90
2023/01/05 03:17:28;;;;;;;;;;;12.60;99.90;;;;;;7339847;19;111698;-89
2023/01/05 03:19:56;;;;;;;;;;;12.60;99.90;;;;;;7344499;19;108612;-90
2023/01/05 03:36:40;;;;;;;;;;;12.60;99.90;;;;;;7341234;19;109703;-89
2023/01/05 03:39:08;;;;;;;;;;;12.60;99.90;;;;;;7341708;19;110528;-90
2023/01/05 03:41:36;;;;;;;;;;;12.60;99.90;;;;;;7341084;19;108541;-90
2023/01/05 03:44:04;;;;;;;;;;;12.60;99.90;;;;;;7341526;19;109251;-90
2023/01/05 03:46:31;;;;;;;;;;;12.60;99.90;;;;;;7339024;19;110746;-90
2023/01/05 03:48:58;;;;;;;;;;;12.60;99.90;;;;;;7340545;19;108369;-90
2023/01/05 03:51:25;;;;;;;;;;;12.60;99.90;;;;;;7344300;19;108703;-91
2023/01/05 03:53:52;;;;;;;;;;;12.60;99.90;;;;;;7341967;19;108496;-91
2023/01/05 03:56:18;;;;;;;;;;;12.60;99.90;;;;;;7341214;19;112079;-89
2023/01/05 03:58:45;;;;;;;;;;;12.60;99.90;;;;;;7340823;19;110863;-89
2023/01/05 04:01:12;;;;;;;;;;;12.70;99.90;;;;;;7339209;19;109000;-88
2023/01/05 04:03:40;;;;;;;;;;;12.60;99.90;;;;;;7339291;19;110047;-90
2023/01/05 04:06:07;;;;;;;;;;;12.60;99.90;;;;;;7341104;19;113291;-89
2023/01/05 04:08:34;;;;;;;;;;;12.60;99.90;;;;;;7341823;19;108516;-89
2023/01/05 04:11:17;;;;;;;;;;;12.60;99.90;;;;;;7346832;19;108814;-90
2023/01/05 04:13:44;;;;;;;;;;;12.70;99.90;;;;;;7354184;19;110842;-89
2023/01/05 04:16:12;;;;;;;;;;;12.60;99.90;;;;;;7345610;19;109569;-89
2023/01/05 04:18:39;;;;;;;;;;;12.60;99.90;;;;;;7347811;19;109103;-90
2023/01/05 04:21:06;;;;;;;;;;;12.60;99.90;;;;;;7349137;19;108635;-89
2023/01/05 04:23:33;;;;;;;;;;;12.70;99.90;;;;;;7345562;19;109173;-90
2023/01/05 04:26:00;;;;;;;;;;;12.60;99.90;;;;;;7348266;19;111003;-90
2023/01/05 04:28:29;;;;;;;;;;;12.60;99.90;;;;;;7347206;19;108443;-90
2023/01/05 04:30:56;;;;;;;;;;;12.60;99.90;;;;;;7346175;19;109234;-90
2023/01/05 04:33:23;;;;;;;;;;;12.70;99.90;;;;;;7346864;19;111629;-90
2023/01/05 04:35:50;;;;;;;;;;;12.70;99.90;;;;;;7353478;19;108949;-89
2023/01/05 04:38:17;;;;;;;;;;;12.60;99.90;;;;;;7347781;19;113517;-90
2023/01/05 04:40:48;;;;;;;;;;;12.70;99.90;;;;;;7346966;19;109438;-89
2023/01/05 04:43:15;;;;;;;;;;;12.60;99.90;;;;;;7347919;19;109913;-90
2023/01/05 04:45:42;;;;;;;;;;;12.60;99.90;;;;;;7344682;19;110035;-90
2023/01/05 04:48:09;;;;;;;;;;;12.70;99.90;;;;;;7345939;19;108431;-89
2023/01/05 04:50:35;;;;;;;;;;;12.70;99.90;;;;;;7347266;19;110656;-89
2023/01/05 04:53:02;;;;;;;;;;;12.70;99.90;;;;;;7345884;19;110222;-89
2023/01/05 04:55:30;;;;;;;;;;;12.60;99.90;;;;;;7344442;19;108658;-89
2023/01/05 04:57:56;;;;;;;;;;;12.60;99.90;;;;;;7352505;19;109786;-90
2023/01/05 05:00:23;;;;;;;;;;;12.60;99.90;;;;;;7343503;19;108946;-90
2023/01/05 05:02:50;;;;;;;;;;;12.60;99.90;;;;;;7346497;19;108767;-89
2023/01/05 05:05:17;;;;;;;;;;;12.60;99.90;;;;;;7345429;19;110656;-88
2023/01/05 05:07:44;;;;;;;;;;;12.60;99.90;;;;;;7346833;19;108650;-89
2023/01/05 05:10:11;;;;;;;;;;;12.60;99.90;;;;;;7346665;19;109726;-89
2023/01/05 05:12:38;;;;;;;;;;;12.50;99.90;;;;;;7343324;19;109260;-89
2023/01/05 05:15:05;;;;;;;;;;;12.60;99.90;;;;;;7345166;19;108884;-90
2023/01/05 05:17:32;;;;;;;;;;;12.60;99.90;;;;;;7346506;19;111546;-90
2023/01/05 05:19:59;;;;;;;;;;;12.60;99.90;;;;;;7348587;19;109697;-90
2023/01/05 05:22:27;;;;;;;;;;;12.60;99.90;;;;;;7343275;19;112185;-90
2023/01/05 05:24:54;;;;;;;;;;;12.60;99.90;;;;;;7344290;19;110245;-89
2023/01/05 05:27:21;;;;;;;;;;;12.60;99.90;;;;;;7343630;19;108604;-89
2023/01/05 05:29:47;;;;;;;;;;;12.50;99.90;;;;;;7345270;19;110774;-89
2023/01/05 05:32:14;;;;;;;;;;;12.50;99.90;;;;;;7344360;19;110254;-89
2023/01/05 05:34:41;;;;;;;;;;;12.50;99.90;;;;;;7345485;19;108832;-89
2023/01/05 05:37:08;;;;;;;;;;;12.50;99.90;;;;;;7345403;19;108981;-88
2023/01/05 05:39:35;;;;;;;;;;;12.40;99.90;;;;;;7347447;19;110957;-90
2023/01/05 05:42:02;;;;;;;;;;;12.50;99.90;;;;;;7346191;19;109187;-90
2023/01/05 05:44:29;;;;;;;;;;;12.50;99.90;;;;;;7344198;19;110075;-89
2023/01/05 05:46:56;;;;;;;;;;;12.50;99.90;;;;;;7347084;19;108955;-89
2023/01/05 05:49:23;;;;;;;;;;;12.50;99.90;;;;;;7343318;19;109399;-88
2023/01/05 05:51:50;;;;;;;;;;;12.50;99.90;;;;;;7343201;19;112137;-90
2023/01/05 05:54:17;;;;;;;;;;;12.50;99.90;;;;;;7344509;19;108731;-89
2023/01/05 05:56:44;;;;;;;;;;;12.40;99.90;;;;;;7344081;19;109113;-89
2023/01/05 05:59:11;;;;;;;;;;;12.50;99.90;;;;;;7343194;19;110580;-89
2023/01/05 06:01:39;;;;;;;;;;;12.50;99.90;;;;;;7347525;19;109784;-88
2023/01/05 06:04:06;;;;;;;;;;;12.50;99.90;;;;;;7342960;19;110931;-89
2023/01/05 06:06:33;;;;;;;;;;;12.50;99.90;;;;;;7342673;19;108599;-89
2023/01/05 06:09:00;;;;;;;;;;;12.50;99.90;;;;;;7343796;19;109643;-90
2023/01/05 06:11:26;;;;;;;;;;;12.60;99.90;;;;;;7342302;19;113433;-91
2023/01/05 06:13:54;;;;;;;;;;;12.50;99.90;;;;;;7345047;19;108553;-89
2023/01/05 06:16:20;;;;;;;;;;;12.50;99.90;;;;;;7342574;19;112446;-90
2023/01/05 06:18:47;;;;;;;;;;;12.50;99.90;;;;;;7344514;19;111109;-91
2023/01/05 06:21:14;;;;;;;;;;;12.50;99.90;;;;;;7345135;19;108470;-90
2023/01/05 06:23:41;;;;;;;;;;;12.60;99.90;;;;;;7347816;19;111871;-89
2023/01/05 06:26:08;;;;;;;;;;;12.50;99.90;;;;;;7342922;19;108582;-89
2023/01/05 06:28:35;;;;;;;;;;;12.50;99.90;;;;;;7345120;19;111919;-89
2023/01/05 06:31:02;;;;;;;;;;;12.60;99.90;;;;;;7340193;19;109236;-88
2023/01/05 06:33:29;;;;;;;;;;;12.50;99.90;;;;;;7342178;19;108601;-92
2023/01/05 06:35:57;;;;;;;;;;;12.50;99.90;;;;;;7345058;19;109380;-88
2023/01/05 06:38:25;;;;;;;;;;;12.50;99.90;;;;;;7340977;19;110386;-89
2023/01/05 06:40:53;;;;;;;;;;;12.60;99.90;;;;;;7342184;19;108408;-87
2023/01/05 06:43:20;;;;;;;;;;;12.50;99.90;;;;;;7340530;19;109076;-89
2023/01/05 06:45:47;;;;;;;;;;;12.50;99.90;;;;;;7348724;19;110301;-90
2023/01/05 06:48:14;;;;;;;;;;;12.50;99.90;;;;;;7345207;19;111944;-89
2023/01/05 06:50:41;;;;;;;;;;;12.50;99.90;;;;;;7342971;19;112092;-89
2023/01/05 06:53:08;;;;;;;;;;;12.50;99.90;;;;;;7341541;19;109488;-89
2023/01/05 06:55:35;;;;;;;;;;;12.50;99.90;;;;;;7341042;19;110413;-88
2023/01/05 06:58:02;;;;;;;;;;;12.50;99.90;;;;;;7339244;19;112981;-89
2023/01/05 07:00:29;;;;;;;;;;;12.50;99.90;;;;;;7342999;19;108483;-89
2023/01/05 07:02:56;;;;;;;;;;;12.50;99.90;;;;;;7339376;19;109321;-87
2023/01/05 07:05:23;;;;;;;;;;;12.50;99.90;;;;;;7342258;19;110531;-88
2023/01/05 07:07:50;;;;;;;;;;;12.50;99.90;;;;;;7346926;19;108421;-89
2023/01/05 07:10:17;;;;;;;;;;;12.50;99.90;;;;;;7340954;19;111047;-88
2023/01/05 07:12:44;;;;;;;;;;;12.50;99.90;;;;;;7343100;19;110752;-88
2023/01/05 07:15:11;;;;;;;;;;;12.50;99.90;;;;;;7339588;19;109681;-88
2023/01/05 07:17:38;;;;;;;;;;;12.50;99.90;;;;;;7338078;19;108795;-88
2023/01/05 07:20:05;;;;;;;;;;;12.50;99.90;;;;;;7341471;19;108463;-88
2023/01/05 07:22:32;;;;;;;;;;;12.50;99.90;;;;;;7339400;19;109119;-88
2023/01/05 07:24:59;;;;;;;;;;;12.60;99.90;;;;;;7340991;19;110379;-87
2023/01/05 07:27:26;;;;;;;;;;;12.50;99.90;;;;;;7340373;19;108409;-89
2023/01/05 07:29:53;;;;;;;;;;;12.50;99.90;;;;;;7345621;19;110369;-88
2023/01/05 07:32:20;;;;;;;;;;;12.50;99.90;;;;;;7340274;19;108643;-89
2023/01/05 07:34:47;;;;;;;;;;;12.50;99.90;;;;;;7342095;19;109943;-88
2023/01/05 07:37:21;;;;;;;;;;;12.40;99.90;;;;;;7340263;19;109301;-89
2023/01/05 07:39:48;;;;;;;;;;;12.50;99.90;;;;;;7340171;19;109356;-88
2023/01/05 07:42:15;;;;;;;;;;;12.50;99.90;;;;;;7339694;19;111296;-89
2023/01/05 07:44:41;;;;;;;;;;;12.50;99.90;;;;;;7340708;19;110224;-89
2023/01/05 07:47:08;;;;;;;;;;;12.50;99.90;;;;;;7341559;19;108807;-88
2023/01/05 07:49:35;;;;;;;;;;;12.50;99.90;;;;;;7344297;19;109327;-88
2023/01/05 07:52:02;;;;;;;;;;;12.50;99.90;;;;;;7340014;19;109345;-89
2023/01/05 07:54:29;;;;;;;;;;;12.40;99.90;;;;;;7338413;19;109356;-88
2023/01/05 07:56:56;;;;;;;;;;;12.40;99.90;;;;;;7342058;19;113301;-89
2023/01/05 07:59:23;;;;;;;;;;;12.40;99.90;;;;;;7342153;19;108714;-89
2023/01/05 08:01:50;;;;;;;;;;;12.40;99.90;;;;;;7341183;19;108833;-88
2023/01/05 08:04:17;;;;;;;;;;;12.40;99.90;;;;;;7339776;19;113650;-89
2023/01/05 08:06:44;;;;;;;;;;;12.40;99.90;;;;;;7342616;19;108771;-90
2023/01/05 08:11:57;;;;;;;;;;;12.40;99.90;;;;;;7349156;19;110192;-88
2023/01/05 08:14:24;;;;;;;;;;;12.40;99.90;;;;;;7341161;19;108358;-89
2023/01/05 08:16:50;;;;;;;;;;;12.40;99.90;;;;;;7339239;19;112243;-90
2023/01/05 08:19:18;;;;;;;;;;;12.40;99.90;;;;;;7342348;19;112689;-89
2023/01/05 08:21:45;;;;;;;;;;;12.40;99.90;;;;;;7340141;19;111940;-88
2023/01/05 08:24:12;;;;;;;;;;;12.40;99.90;;;;;;7339773;19;110861;-90
2023/01/05 08:26:39;;;;;;;;;;;12.40;99.90;;;;;;7340618;19;108478;-89
2023/01/05 08:29:06;;;;;;;;;;;12.40;99.90;;;;;;7341386;19;109240;-89
2023/01/05 08:31:36;;;;;;;;;;;12.50;99.90;;;;;;7338223;19;109422;-89
2023/01/05 08:34:03;;;;;;;;;;;12.40;99.90;;;;;;7348626;19;108658;-88
2023/01/05 08:36:31;;;;;;;;;;;12.50;99.90;;;;;;7340945;19;111114;-90
2023/01/05 08:39:00;;;;;;;;;;;12.40;99.90;;;;;;7340486;19;109354;-89
2023/01/05 08:41:30;;;;;;;;;;;12.40;99.90;;;;;;7338668;19;109868;-89
2023/01/05 08:43:59;;;;;;;;;;;12.40;99.90;;;;;;7339622;19;113200;-90
2023/01/05 08:46:27;;;;;;;;;;;12.40;99.90;;;;;;7339484;19;108360;-88
2023/01/05 08:48:55;;;;;;;;;;;12.40;99.90;;;;;;7340935;19;108076;-89
2023/01/05 08:51:23;;;;;;;;;;;12.50;99.90;;;;;;7339962;19;108979;-89
2023/01/05 08:53:49;;;;;;;;;;;12.50;99.90;;;;;;7340384;19;108543;-88
2023/01/05 08:56:19;;;;;;;;;;;12.50;99.90;;;;;;7348541;19;109268;-89
2023/01/05 08:58:46;;;;;;;;;;;12.50;99.90;;;;;;7348116;19;108489;-89
2023/01/05 09:01:15;;;;;;;;;;;12.50;99.90;;;;;;7345796;19;111657;-88
2023/01/05 09:03:42;;;;;;;;;;;12.50;99.90;;;;;;7343967;19;113044;-90
2023/01/05 09:06:10;;;;;;;;;;;12.50;99.90;;;;;;7345934;19;108397;-90
2023/01/05 09:08:38;;;;;;;;;;;12.50;99.90;;;;;;7345547;19;112020;-90
2023/01/05 09:11:06;;;;;;;;;;;12.50;99.90;;;;;;7344770;19;113592;-89
2023/01/05 09:13:34;;;;;;;;;;;12.50;99.90;;;;;;7347260;19;108819;-88
2023/01/05 09:16:08;;;;;;;;;;;12.60;99.90;;;;;;7346735;19;109709;-90
2023/01/05 09:18:35;;;;;;;;;;;12.60;99.90;;;;;;7351729;19;110666;-89
2023/01/05 09:21:02;;;;;;;;;;;12.50;99.90;;;;;;7346482;19;109546;-89
2023/01/05 09:23:29;;;;;;;;;;;12.50;99.90;;;;;;7346503;19;110186;-89
2023/01/05 09:25:56;;;;;;;;;;;12.60;99.90;;;;;;7346196;19;108579;-89
2023/01/05 09:28:23;;;;;;;;;;;12.60;99.90;;;;;;7345161;19;109165;-88
2023/01/05 09:30:50;;;;;;;;;;;12.60;99.90;;;;;;7345777;19;111001;-90
2023/01/05 09:33:17;;;;;;;;;;;12.60;99.90;;;;;;7344664;19;108849;-89
2023/01/05 09:35:52;;;;;;;;;;;12.60;99.90;;;;;;7345989;19;108966;-90
2023/01/05 09:38:18;;;;;;;;;;;12.70;99.90;;;;;;7345127;19;108856;-90
2023/01/05 09:40:46;;;;;;;;;;;12.60;99.90;;;;;;7352549;19;108736;-88
2023/01/05 09:43:20;;;;;;;;;;;12.60;99.90;;;;;;7346977;19;113412;-90
2023/01/05 09:45:48;;;;;;;;;;;12.60;99.90;;;;;;7349012;19;108442;-89
2023/01/05 09:48:15;;;;;;;;;;;12.60;99.90;;;;;;7346588;19;112657;-89
2023/01/05 09:50:43;;;;;;;;;;;12.60;99.90;;;;;;7342927;19;112621;-91
2023/01/05 09:53:11;;;;;;;;;;;12.60;99.90;;;;;;7343718;19;108878;-89
2023/01/05 09:55:40;;;;;;;;;;;12.60;99.90;;;;;;7344524;19;109245;-89
2023/01/05 09:58:19;;;;;;;;;;;12.60;99.90;;;;;;7343785;19;113370;-89
2023/01/05 10:01:04;;;;;;;;;;;12.60;99.90;;;;;;7349384;19;108440;-89
2023/01/05 10:03:34;;;;;;;;;;;12.60;99.90;;;;;;7341879;19;110882;-87
2023/01/05 10:06:25;;;;;;;;;;;12.60;99.90;;;;;;7341325;19;108860;-89
2023/01/05 10:08:52;;;;;;;;;;;12.60;99.90;;;;;;7345733;19;108987;-89
2023/01/05 10:14:25;;;;;;;;;;;12.60;99.90;;;;;;7348249;19;109129;-89
2023/01/05 10:16:52;;;;;;;;;;;12.60;99.90;;;;;;7344753;19;112426;-90
2023/01/05 10:19:33;;;;;;;;;;;12.60;99.90;;;;;;7346398;19;110063;-89
2023/01/05 10:22:09;;;;;;;;;;;12.60;99.90;;;;;;7344491;19;108303;-90
2023/01/05 10:24:36;;;;;;;;;;;12.70;99.90;;;;;;7347853;19;109555;-88
2023/01/05 10:27:21;;;;;;;;;;;12.70;99.90;;;;;;7344834;19;109463;-90
2023/01/05 10:30:10;;;;;;;;;;;12.70;99.90;;;;;;7344258;19;109632;-89
2023/01/05 10:32:44;;;;;;;;;;;12.80;99.90;;;;;;7344652;19;112908;-89
2023/01/05 10:35:19;;;;;;;;;;;12.80;99.90;;;;;;7344507;19;108235;-91
2023/01/05 10:38:06;;;;;;;;;;;12.80;99.90;;;;;;7343214;19;111897;-89
2023/01/05 10:40:42;;;;;;;;;;;12.80;99.90;;;;;;7341524;19;113056;-90
2023/01/05 10:43:18;;;;;;;;;;;12.70;99.90;;;;;;7343168;19;109905;-89
2023/01/05 10:45:45;;;;;;;;;;;12.80;99.90;;;;;;7344193;19;109759;-89
2023/01/05 10:48:33;;;;;;;;;;;12.80;99.90;;;;;;7348313;19;113094;-89
2023/01/05 10:51:02;;;;;;;;;;;12.80;99.90;;;;;;7342210;19;109170;-89
2023/01/05 10:53:32;;;;;;;;;;;12.90;99.90;;;;;;7341715;19;110567;-89
2023/01/05 10:56:03;;;;;;;;;;;12.80;99.90;;;;;;7342517;19;108952;-89
2023/01/05 10:58:35;;;;;;;;;;;12.90;99.90;;;;;;7342713;19;109569;-90
2023/01/05 11:01:04;;;;;;;;;;;13.00;99.90;;;;;;7339698;19;110409;-89
2023/01/05 11:03:37;;;;;;;;;;;13.00;99.90;;;;;;7342953;19;108477;-89
2023/01/05 11:06:29;;;;;;;;;;;13.00;99.90;;;;;;7341524;19;109646;-89
2023/01/05 11:09:18;;;;;;;;;;;13.00;99.90;;;;;;7342510;19;111856;-90
2023/01/05 11:11:54;;;;;;;;;;;13.00;99.90;;;;;;7350133;19;111511;-89
2023/01/05 11:14:21;;;;;;;;;;;13.00;99.90;;;;;;7342823;19;114135;-90
2023/01/05 11:16:52;;;;;;;;;;;13.00;99.90;;;;;;7340796;19;108715;-89
2023/01/05 11:19:27;;;;;;;;;;;13.00;99.90;;;;;;7338737;19;108868;-89
2023/01/05 11:21:54;;;;;;;;;;;13.00;99.90;;;;;;7341440;19;110354;-89
2023/01/05 11:24:28;;;;;;;;;;;13.00;99.90;;;;;;7341512;19;108907;-89
2023/01/05 11:26:57;;;;;;;;;;;13.00;99.90;;;;;;7341468;19;108931;-89
2023/01/05 11:29:24;;;;;;;;;;;13.00;99.90;;;;;;7340639;19;110367;-88
2023/01/05 11:32:04;;;;;;;;;;;13.00;99.90;;;;;;7342030;19;108641;-88
2023/01/05 11:34:42;;;;;;;;;;;13.00;99.90;;;;;;7347790;19;109241;-87
2023/01/05 11:37:09;;;;;;;;;;;13.00;99.90;;;;;;7342332;19;108941;-89
2023/01/05 11:39:45;;;;;;;;;;;13.00;99.90;;;;;;7342699;19;108373;-88
2023/01/05 11:42:14;;;;;;;;;;;13.10;99.90;;;;;;7342704;19;110985;-89
2023/01/05 11:44:53;;;;;;;;;;;13.10;99.90;;;;;;7342658;19;109139;-89
2023/01/05 11:47:23;;;;;;;;;;;13.10;99.90;;;;;;7342570;19;109248;-87
2023/01/05 11:50:16;;;;;;;;;;;13.10;99.90;;;;;;7340126;19;109775;-87
2023/01/05 11:52:45;;;;;;;;;;;13.20;99.90;;;;;;7339675;19;108776;-88
2023/01/05 11:55:18;;;;;;;;;;;13.20;99.90;;;;;;7347822;19;110666;-88
2023/01/05 11:57:49;;;;;;;;;;;13.30;99.90;;;;;;7340245;19;108558;-92
2023/01/05 12:00:33;;;;;;;;;;;13.20;99.90;;;;;;7340282;19;108377;-91
2023/01/05 12:03:27;;;;;;;;;;;13.30;99.90;;;;;;7340986;19;110698;-92
2023/01/05 12:05:56;;;;;;;;;;;13.30;99.90;;;;;;7341955;19;108805;-91
2023/01/05 12:08:29;;;;;;;;;;;13.30;99.90;;;;;;7341011;19;110446;-91
2023/01/05 12:11:15;;;;;;;;;;;13.40;99.90;;;;;;7340502;19;113105;-89
2023/01/05 12:13:51;;;;;;;;;;;13.40;99.90;;;;;;7340314;19;109044;-90
2023/01/05 12:16:28;;;;;;;;;;;13.40;99.90;;;;;;7340456;19;110894;-92
2023/01/05 12:19:15;;;;;;;;;;;13.40;99.90;;;;;;7345639;19;113755;-91
2023/01/05 12:21:46;;;;;;;;;;;13.50;99.90;;;;;;7339991;19;109524;-91
2023/01/05 12:24:29;;;;;;;;;;;13.50;99.90;;;;;;7341050;19;110755;-91
2023/01/05 12:26:58;;;;;;;;;;;13.50;99.90;;;;;;7341760;19;108931;-91
2023/01/05 12:29:28;;;;;;;;;;;13.50;99.90;;;;;;7340946;19;112179;-90
2023/01/05 12:32:24;;;;;;;;;;;13.50;99.90;;;;;;7347935;19;111107;-91
2023/01/05 12:35:30;;;;;;;;;;;13.40;99.90;;;;;;7350396;19;108895;-92
2023/01/05 12:38:06;;;;;;;;;;;13.40;99.90;;;;;;7348161;19;109462;-88
2023/01/05 12:40:35;;;;;;;;;;;13.40;99.90;;;;;;7345802;19;109422;-89
2023/01/05 12:43:06;;;;;;;;;;;13.40;99.90;;;;;;7353514;19;108899;-91
2023/01/05 12:45:51;;;;;;;;;;;13.50;99.90;;;;;;7346849;19;111664;-91
2023/01/05 12:48:24;;;;;;;;;;;13.50;99.90;;;;;;7346479;19;108692;-92
2023/01/05 12:50:55;;;;;;;;;;;13.40;99.90;;;;;;7347988;19;112374;-90
2023/01/05 12:53:25;;;;;;;;;;;13.40;99.90;;;;;;7346862;19;112247;-89
2023/01/05 12:55:56;;;;;;;;;;;13.50;99.90;;;;;;7349096;19;108432;-89
2023/01/05 12:58:33;;;;;;;;;;;13.50;99.90;;;;;;7347857;19;109460;-92
2023/01/05 13:01:03;;;;;;;;;;;13.50;99.90;;;;;;7347569;19;109628;-92
2023/01/05 13:03:38;;;;;;;;;;;13.50;99.90;;;;;;7346276;19;108319;-91
2023/01/05 13:06:15;;;;;;;;;;;13.50;99.90;;;;;;7353808;19;109691;-90
2023/01/05 13:08:42;;;;;;;;;;;13.50;99.90;;;;;;7346777;19;108943;-91
2023/01/05 13:11:16;;;;;;;;;;;13.50;99.90;;;;;;7345636;19;110796;-91
2023/01/05 13:13:46;;;;;;;;;;;13.60;99.90;;;;;;7347554;19;110831;-91
2023/01/05 13:16:26;;;;;;;;;;;13.60;99.90;;;;;;7347964;19;109426;-90
2023/01/05 13:19:11;;;;;;;;;;;13.70;99.90;;;;;;7347622;19;109249;-91
2023/01/05 13:21:40;;;;;;;;;;;13.70;99.90;;;;;;7345580;19;110385;-88
2023/01/05 13:24:13;;;;;;;;;;;13.70;99.90;;;;;;7345541;19;108436;-91
2023/01/05 13:26:40;;;;;;;;;;;13.70;99.90;;;;;;7344930;19;108536;-88
2023/01/05 13:29:22;;;;;;;;;;;13.70;99.90;;;;;;7352077;19;110297;-90
2023/01/05 13:32:22;;;;;;;;;;;13.70;99.90;;;;;;7343382;19;111492;-88
2023/01/05 13:34:51;;;;;;;;;;;13.70;99.90;;;;;;7340065;19;110747;-89
2023/01/05 13:37:34;;;;;;;;;;;13.70;99.90;;;;;;7340682;19;108629;-89
2023/01/05 13:40:01;;;;;;;;;;;13.70;99.90;;;;;;7339375;19;109754;-89
2023/01/05 13:42:47;;;;;;;;;;;13.70;99.90;;;;;;7339374;19;114021;-88
2023/01/05 13:45:30;;;;;;;;;;;13.70;99.90;;;;;;7341940;19;108978;-90
2023/01/05 13:47:59;;;;;;;;;;;13.70;99.90;;;;;;7345563;19;110491;-90
2023/01/05 13:50:48;;;;;;;;;;;13.70;99.90;;;;;;7343395;19;112817;-88
2023/01/05 13:53:19;;;;;;;;;;;13.70;99.90;;;;;;7347196;19;108534;-88
2023/01/05 13:56:08;;;;;;;;;;;13.60;99.90;;;;;;7343729;19;110948;-88
2023/01/05 13:58:45;;;;;;;;;;;13.50;99.90;;;;;;7342439;19;108971;-89
2023/01/05 14:01:17;;;;;;;;;;;13.50;99.90;;;;;;7342870;19;109307;-88
2023/01/05 14:03:51;;;;;;;;;;;13.40;99.90;;;;;;7342000;19;112790;-89
2023/01/05 14:06:26;;;;;;;;;;;13.50;99.90;;;;;;7342709;19;111353;-89
2023/01/05 14:08:56;;;;;;;;;;;13.40;99.90;;;;;;7343053;19;109261;-90
2023/01/05 14:11:24;;;;;;;;;;;13.40;99.90;;;;;;7343381;19;113737;-89
2023/01/05 14:13:54;;;;;;;;;;;13.40;99.90;;;;;;7349152;19;108558;-89
2023/01/05 14:16:37;;;;;;;;;;;13.40;99.90;;;;;;7345310;19;109048;-88
2023/01/05 14:19:10;;;;;;;;;;;13.40;99.90;;;;;;7345208;19;108449;-90
2023/01/05 14:21:49;;;;;;;;;;;13.30;99.90;;;;;;7343542;19;108467;-89
2023/01/05 14:24:26;;;;;;;;;;;13.30;99.90;;;;;;7345421;19;110842;-89
2023/01/05 14:27:03;;;;;;;;;;;13.20;99.90;;;;;;7344481;19;108472;-89
2023/01/05 14:29:42;;;;;;;;;;;13.20;99.90;;;;;;7344038;19;108610;-89
2023/01/05 14:32:11;;;;;;;;;;;13.20;99.90;;;;;;7343298;19;113132;-89
2023/01/05 14:34:44;;;;;;;;;;;13.20;99.90;;;;;;7343451;19;108944;-89
2023/01/05 14:37:20;;;;;;;;;;;13.20;99.90;;;;;;7351309;19;109112;-87
2023/01/05 14:39:47;;;;;;;;;;;13.10;99.90;;;;;;7345224;19;109079;-88
2023/01/05 14:42:16;;;;;;;;;;;13.20;99.90;;;;;;7345681;19;109174;-89
2023/01/05 14:44:58;;;;;;;;;;;13.20;99.90;;;;;;7342422;19;115436;-88
2023/01/05 14:47:40;;;;;;;;;;;13.20;99.90;;;;;;7342618;19;108309;-89
2023/01/05 14:50:25;;;;;;;;;;;13.10;99.90;;;;;;7343092;19;110872;-88
2023/01/05 14:52:54;;;;;;;;;;;13.10;99.90;;;;;;7340767;19;113186;-89
2023/01/05 14:55:23;;;;;;;;;;;13.10;99.90;;;;;;7344037;19;108454;-89
2023/01/05 14:58:10;;;;;;;;;;;13.10;99.90;;;;;;7344741;19;109202;-89